createdAt,value
2019-04-03T00:01:11.830Z,4.40
2019-04-03T00:03:40.355Z,4.40
2019-04-03T00:06:08.815Z,4.30
2019-04-03T00:08:37.272Z,4.30
2019-04-03T00:11:08.650Z,4.30
2019-04-03T00:13:35.979Z,4.20
2019-04-03T00:16:04.559Z,4.00
2019-04-03T00:18:33.008Z,4.10
2019-04-03T00:21:01.490Z,4.10
2019-04-03T00:23:30.059Z,4.00
2019-04-03T00:25:58.698Z,3.80
2019-04-03T00:28:27.248Z,3.80
2019-04-03T00:30:55.692Z,3.80
2019-04-03T00:33:24.242Z,3.80
2019-04-03T00:35:53.644Z,3.80
2019-04-03T00:38:23.926Z,3.80
2019-04-03T00:40:54.287Z,3.80
2019-04-03T00:43:24.302Z,3.70
2019-04-03T00:45:54.559Z,3.70
2019-04-03T00:48:25.050Z,3.60
2019-04-03T00:50:56.318Z,3.40
2019-04-03T00:53:23.635Z,3.40
2019-04-03T00:55:52.147Z,3.40
2019-04-03T00:58:35.560Z,3.40
2019-04-03T01:01:05.938Z,3.40
2019-04-03T01:03:34.388Z,3.30
2019-04-03T01:06:02.936Z,3.30
2019-04-03T01:08:31.517Z,3.20
2019-04-03T01:11:00.451Z,3.20
2019-04-03T01:13:29.760Z,3.10
2019-04-03T01:16:02.009Z,3.00
2019-04-03T01:18:30.080Z,3.00
2019-04-03T01:20:58.724Z,3.10
2019-04-03T01:23:27.263Z,3.20
2019-04-03T01:25:55.700Z,3.10
2019-04-03T01:28:24.264Z,3.00
2019-04-03T01:30:52.843Z,3.00
2019-04-03T01:33:21.295Z,3.10
2019-04-03T01:35:49.925Z,3.00
2019-04-03T01:38:19.482Z,3.00
2019-04-03T01:40:48.911Z,3.00
2019-04-03T01:43:18.579Z,3.10
2019-04-03T01:45:47.070Z,3.00
2019-04-03T01:48:15.540Z,3.00
2019-04-03T01:50:44.177Z,2.90
2019-04-03T01:53:12.635Z,2.90
2019-04-03T01:55:41.081Z,3.00
2019-04-03T01:58:11.019Z,3.00
2019-04-03T02:00:39.553Z,3.00
2019-04-03T02:03:09.762Z,3.00
2019-04-03T02:05:38.270Z,3.00
2019-04-03T02:08:06.779Z,3.00
2019-04-03T02:10:35.295Z,3.00
2019-04-03T02:13:03.783Z,3.00
2019-04-03T02:15:32.293Z,3.00
2019-04-03T02:18:00.779Z,3.00
2019-04-03T02:20:29.280Z,3.00
2019-04-03T02:23:00.430Z,3.00
2019-04-03T02:25:28.158Z,3.00
2019-04-03T02:27:56.628Z,3.10
2019-04-03T02:30:25.142Z,3.10
2019-04-03T02:32:56.338Z,3.10
2019-04-03T02:35:23.788Z,3.10
2019-04-03T02:37:52.391Z,3.10
2019-04-03T02:40:21.000Z,3.00
2019-04-03T02:42:49.509Z,3.00
2019-04-03T02:45:18.022Z,2.90
2019-04-03T02:47:46.554Z,2.90
2019-04-03T02:50:25.726Z,3.00
2019-04-03T02:52:58.067Z,3.00
2019-04-03T02:55:24.898Z,2.90
2019-04-03T02:57:53.608Z,3.00
2019-04-03T03:00:22.205Z,3.00
2019-04-03T03:02:54.510Z,3.00
2019-04-03T03:05:26.636Z,3.10
2019-04-03T03:07:53.349Z,3.10
2019-04-03T03:10:21.937Z,3.10
2019-04-03T03:12:50.862Z,3.20
2019-04-03T03:15:20.446Z,3.20
2019-04-03T03:17:49.625Z,3.30
2019-04-03T03:20:21.166Z,3.30
2019-04-03T03:22:51.791Z,3.40
2019-04-03T03:25:20.516Z,3.30
2019-04-03T03:27:49.305Z,3.40
2019-04-03T03:30:37.142Z,3.40
2019-04-03T03:32:49.408Z,3.40
2019-04-03T03:35:26.601Z,3.50
2019-04-03T03:37:49.652Z,3.50
2019-04-03T03:40:18.246Z,3.50
2019-04-03T03:42:47.551Z,3.50
2019-04-03T03:45:19.492Z,3.60
2019-04-03T03:47:50.034Z,3.60
2019-04-03T03:50:26.026Z,3.70
2019-04-03T03:52:56.618Z,3.70
2019-04-03T03:55:25.760Z,3.70
2019-04-03T03:57:55.281Z,3.70
2019-04-03T04:00:24.639Z,3.70
2019-04-03T04:02:54.027Z,3.70
2019-04-03T04:05:23.137Z,3.70
2019-04-03T04:07:52.072Z,3.70
2019-04-03T04:10:24.078Z,3.80
2019-04-03T04:12:51.486Z,3.80
2019-04-03T04:15:20.140Z,3.70
2019-04-03T04:17:50.979Z,3.60
2019-04-03T04:20:18.858Z,3.70
2019-04-03T04:22:50.759Z,3.80
2019-04-03T04:25:18.817Z,3.90
2019-04-03T04:27:49.850Z,3.80
2019-04-03T04:30:19.832Z,3.80
2019-04-03T04:32:48.273Z,3.90
2019-04-03T04:35:16.734Z,3.80
2019-04-03T04:37:45.358Z,3.70
2019-04-03T04:40:13.934Z,3.80
2019-04-03T04:42:42.403Z,3.80
2019-04-03T04:45:11.884Z,3.90
2019-04-03T04:47:40.890Z,3.90
2019-04-03T04:50:09.386Z,3.80
2019-04-03T04:52:37.903Z,3.80
2019-04-03T04:55:06.598Z,3.90
2019-04-03T04:57:35.401Z,3.90
2019-04-03T05:00:06.601Z,3.80
2019-04-03T05:02:34.281Z,3.80
2019-04-03T05:05:02.965Z,3.70
2019-04-03T05:07:31.488Z,3.60
2019-04-03T05:10:00.138Z,3.70
2019-04-03T05:12:28.640Z,3.70
2019-04-03T05:14:57.096Z,3.60
2019-04-03T05:17:27.272Z,3.50
2019-04-03T05:19:56.059Z,3.50
2019-04-03T05:22:25.567Z,3.50
2019-04-03T05:24:54.084Z,3.50
2019-04-03T05:27:22.636Z,3.40
2019-04-03T05:29:51.137Z,3.40
2019-04-03T05:32:19.812Z,3.40
2019-04-03T05:34:48.345Z,3.30
2019-04-03T05:37:18.057Z,3.20
2019-04-03T05:39:47.110Z,3.40
2019-04-03T05:42:15.576Z,3.50
2019-04-03T05:44:44.079Z,3.40
2019-04-03T05:47:12.700Z,3.40
2019-04-03T05:49:41.237Z,3.40
2019-04-03T05:52:09.736Z,3.50
2019-04-03T05:54:39.376Z,3.50
2019-04-03T05:57:08.423Z,3.50
2019-04-03T05:59:36.869Z,3.40
2019-04-03T06:02:14.678Z,3.40
2019-04-03T06:04:35.929Z,3.40
2019-04-03T06:07:04.770Z,3.40
2019-04-03T06:09:33.318Z,3.50
2019-04-03T06:12:01.798Z,3.60
2019-04-03T06:14:30.313Z,3.70
2019-04-03T06:16:58.760Z,3.70
2019-04-03T06:19:27.237Z,3.80
2019-04-03T06:21:55.685Z,3.80
2019-04-03T06:24:24.730Z,3.70
2019-04-03T06:26:53.741Z,3.60
2019-04-03T06:29:22.498Z,3.70
2019-04-03T06:31:50.985Z,3.60
2019-04-03T06:34:19.485Z,3.60
2019-04-03T06:36:50.172Z,3.60
2019-04-03T06:39:22.168Z,3.60
2019-04-03T06:41:48.283Z,3.60
2019-04-03T06:44:16.727Z,3.60
2019-04-03T06:46:45.208Z,3.60
2019-04-03T06:49:14.400Z,3.80
2019-04-03T06:51:43.241Z,3.70
2019-04-03T06:54:11.721Z,3.80
2019-04-03T06:56:41.178Z,3.80
2019-04-03T06:59:09.808Z,3.90
2019-04-03T07:01:38.276Z,4.00
2019-04-03T07:04:07.227Z,4.00
2019-04-03T07:06:35.770Z,4.00
2019-04-03T07:12:31.922Z,4.00
2019-04-03T07:15:00.409Z,4.00
2019-04-03T07:17:31.421Z,4.30
2019-04-03T07:20:12.075Z,4.40
2019-04-03T07:22:29.218Z,4.50
2019-04-03T07:24:57.657Z,4.80
2019-04-03T07:27:26.144Z,4.90
2019-04-03T07:29:54.865Z,4.90
2019-04-03T07:32:25.302Z,4.80
2019-04-03T07:34:53.693Z,4.90
2019-04-03T07:37:22.183Z,4.70
2019-04-03T07:39:50.624Z,4.70
2019-04-03T07:42:19.080Z,4.70
2019-04-03T07:44:47.552Z,4.80
2019-04-03T07:47:17.566Z,4.70
2019-04-03T07:49:48.837Z,4.80
2019-04-03T07:52:17.837Z,4.80
2019-04-03T07:54:46.401Z,4.80
2019-04-03T07:57:16.386Z,5.00
2019-04-03T07:59:45.390Z,5.10
2019-04-03T08:02:14.085Z,5.10
2019-04-03T08:04:42.717Z,5.10
2019-04-03T08:07:11.237Z,5.10
2019-04-03T08:09:39.873Z,5.20
2019-04-03T08:12:08.345Z,5.20
2019-04-03T08:14:36.785Z,5.50
2019-04-03T08:17:05.316Z,5.50
2019-04-03T08:19:33.784Z,5.60
2019-04-03T08:22:02.507Z,5.40
2019-04-03T08:24:31.281Z,5.40
2019-04-03T08:26:59.800Z,5.30
2019-04-03T08:29:28.248Z,5.20
2019-04-03T08:31:56.907Z,5.50
2019-04-03T08:34:25.454Z,5.50
2019-04-03T08:36:54.190Z,5.60
2019-04-03T08:39:22.816Z,5.50
2019-04-03T08:41:51.396Z,5.60
2019-04-03T08:44:19.836Z,5.80
2019-04-03T08:46:48.634Z,6.00
2019-04-03T08:49:17.166Z,6.10
2019-04-03T08:51:45.760Z,6.50
2019-04-03T08:54:14.468Z,6.50
2019-04-03T08:56:43.184Z,6.90
2019-04-03T08:59:13.549Z,7.10
2019-04-03T09:01:42.123Z,7.40
2019-04-03T09:04:10.823Z,7.50
2019-04-03T09:06:39.575Z,7.20
2019-04-03T09:09:10.377Z,7.30
2019-04-03T09:11:39.039Z,7.10
2019-04-03T09:14:07.922Z,7.10
2019-04-03T09:16:37.109Z,7.00
2019-04-03T09:19:05.582Z,7.00
2019-04-03T09:21:34.031Z,6.90
2019-04-03T09:24:02.618Z,7.00
2019-04-03T09:26:34.913Z,6.80
2019-04-03T09:29:01.251Z,7.00
2019-04-03T09:31:29.806Z,7.00
2019-04-03T09:33:58.640Z,6.70
2019-04-03T09:36:27.163Z,6.60
2019-04-03T09:38:55.667Z,7.10
2019-04-03T09:41:24.161Z,7.20
2019-04-03T09:43:54.282Z,7.60
2019-04-03T09:46:22.792Z,7.70
2019-04-03T09:48:51.627Z,8.00
2019-04-03T09:51:26.223Z,8.20
2019-04-03T09:53:57.106Z,8.40
2019-04-03T09:56:24.852Z,8.60
2019-04-03T09:58:55.899Z,8.50
2019-04-03T10:01:23.453Z,8.50
2019-04-03T10:03:53.899Z,8.60
2019-04-03T10:06:22.170Z,8.00
2019-04-03T10:08:50.685Z,7.80
2019-04-03T10:11:20.387Z,7.70
2019-04-03T10:13:49.344Z,7.70
2019-04-03T10:16:17.794Z,7.90
2019-04-03T10:18:46.341Z,7.80
2019-04-03T10:21:14.786Z,7.60
2019-04-03T10:23:43.352Z,7.80
2019-04-03T10:26:12.189Z,7.70
2019-04-03T10:28:42.552Z,7.70
2019-04-03T10:31:10.816Z,8.20
2019-04-03T10:33:39.292Z,8.50
2019-04-03T10:36:10.255Z,8.70
2019-04-03T10:38:37.958Z,8.80
2019-04-03T10:41:06.416Z,8.80
2019-04-03T10:43:36.919Z,9.20
2019-04-03T10:46:05.209Z,8.80
2019-04-03T10:48:33.733Z,8.60
2019-04-03T10:51:02.170Z,8.70
2019-04-03T10:53:30.829Z,8.70
2019-04-03T10:55:59.840Z,8.40
2019-04-03T10:58:29.118Z,8.00
2019-04-03T11:00:59.088Z,7.60
2019-04-03T11:03:27.879Z,7.50
2019-04-03T11:05:56.384Z,7.40
2019-04-03T11:08:24.820Z,7.20
2019-04-03T11:10:53.376Z,7.40
2019-04-03T11:13:21.804Z,7.50
2019-04-03T11:15:50.421Z,7.50
2019-04-03T11:18:21.099Z,7.70
2019-04-03T11:20:49.135Z,7.70
2019-04-03T11:23:18.098Z,7.90
2019-04-03T11:25:48.001Z,8.00
2019-04-03T11:28:16.564Z,8.10
2019-04-03T11:30:45.359Z,7.90
2019-04-03T11:33:14.085Z,7.80
2019-04-03T11:35:43.602Z,7.90
2019-04-03T11:38:16.948Z,7.80
2019-04-03T11:40:42.293Z,8.00
2019-04-03T11:43:10.936Z,7.90
2019-04-03T11:45:39.751Z,7.60
2019-04-03T11:48:08.364Z,7.40
2019-04-03T11:50:39.450Z,7.20
2019-04-03T11:53:07.753Z,7.10
2019-04-03T11:55:36.300Z,6.70
2019-04-03T11:58:04.983Z,6.50
2019-04-03T12:00:35.233Z,6.20
2019-04-03T12:03:04.544Z,5.90
2019-04-03T12:05:33.032Z,5.80
2019-04-03T12:08:01.698Z,5.70
2019-04-03T12:10:30.206Z,5.90
2019-04-03T12:12:58.647Z,5.90
2019-04-03T12:15:27.080Z,6.10
2019-04-03T12:17:55.612Z,6.00
2019-04-03T12:20:24.062Z,5.60
2019-04-03T12:22:57.080Z,5.70
2019-04-03T12:25:25.544Z,5.70
2019-04-03T12:27:53.987Z,5.70
2019-04-03T12:30:22.661Z,5.70
2019-04-03T12:32:51.435Z,5.80
2019-04-03T12:35:19.864Z,5.90
2019-04-03T12:37:50.195Z,5.80
2019-04-03T12:40:18.695Z,6.20
2019-04-03T12:42:47.215Z,6.30
2019-04-03T12:45:17.864Z,6.20
2019-04-03T12:47:46.087Z,6.20
2019-04-03T12:50:15.964Z,6.40
2019-04-03T12:52:45.442Z,6.60
2019-04-03T12:55:15.159Z,6.80
2019-04-03T12:57:43.802Z,7.60
2019-04-03T13:00:13.640Z,7.80
2019-04-03T13:02:42.428Z,7.80
2019-04-03T13:05:11.464Z,8.10
2019-04-03T13:07:39.912Z,8.50
2019-04-03T13:10:09.498Z,8.40
2019-04-03T13:12:38.106Z,8.80
2019-04-03T13:15:10.441Z,9.10
2019-04-03T13:17:43.285Z,9.20
2019-04-03T13:20:11.306Z,9.60
2019-04-03T13:22:39.995Z,10.50
2019-04-03T13:25:10.120Z,11.50
2019-04-03T13:27:38.568Z,10.70
2019-04-03T13:30:11.459Z,11.80
2019-04-03T13:32:38.575Z,12.90
2019-04-03T13:35:07.919Z,11.70
2019-04-03T13:37:36.428Z,10.80
2019-04-03T13:40:09.316Z,10.90
2019-04-03T13:42:37.812Z,11.20
2019-04-03T13:45:10.447Z,11.20
2019-04-03T13:47:41.091Z,10.30
2019-04-03T13:50:10.852Z,10.40
2019-04-03T13:52:43.204Z,10.70
2019-04-03T13:55:10.193Z,10.10
2019-04-03T13:57:38.741Z,10.40
2019-04-03T14:00:18.170Z,10.50
2019-04-03T14:02:38.894Z,11.40
2019-04-03T14:05:08.050Z,11.40
2019-04-03T14:07:40.393Z,11.00
2019-04-03T14:10:08.764Z,10.50
2019-04-03T14:12:39.208Z,10.20
2019-04-03T14:15:07.885Z,10.10
2019-04-03T14:17:37.155Z,9.70
2019-04-03T14:20:10.840Z,9.20
2019-04-03T14:22:39.535Z,9.30
2019-04-03T14:25:19.985Z,9.00
2019-04-03T14:27:38.541Z,8.80
2019-04-03T14:30:11.468Z,8.90
2019-04-03T14:32:39.405Z,8.70
2019-04-03T14:35:33.702Z,8.80
2019-04-03T14:37:38.864Z,8.80
2019-04-03T14:40:10.994Z,8.80
2019-04-03T14:42:37.532Z,8.90
2019-04-03T14:45:07.958Z,10.50
2019-04-03T14:47:36.568Z,11.00
2019-04-03T14:50:07.084Z,11.10
2019-04-03T14:52:36.235Z,12.90
2019-04-03T14:55:16.646Z,14.10
2019-04-03T14:57:37.204Z,12.80
2019-04-03T15:00:23.331Z,14.90
2019-04-03T15:02:40.121Z,15.00
2019-04-03T15:05:09.194Z,12.50
2019-04-03T15:07:37.701Z,11.00
2019-04-03T15:10:09.536Z,10.60
2019-04-03T15:12:39.938Z,10.00
2019-04-03T15:15:08.515Z,10.10
2019-04-03T15:17:37.984Z,9.80
2019-04-03T15:20:08.476Z,10.10
2019-04-03T15:22:37.146Z,10.10
2019-04-03T15:25:07.801Z,10.00
2019-04-03T15:27:36.322Z,9.90
2019-04-03T15:30:09.614Z,9.90
2019-04-03T15:32:37.617Z,9.30
2019-04-03T15:35:07.181Z,9.20
2019-04-03T15:37:36.082Z,9.10
2019-04-03T15:40:05.749Z,9.00
2019-04-03T15:42:34.661Z,8.90
2019-04-03T15:45:03.363Z,8.90
2019-04-03T15:47:37.070Z,8.90
2019-04-03T15:50:02.071Z,8.60
2019-04-03T15:52:30.528Z,8.60
2019-04-03T15:54:59.071Z,8.60
2019-04-03T15:57:27.687Z,8.60
2019-04-03T15:59:56.455Z,8.80
2019-04-03T16:02:28.987Z,8.80
2019-04-03T16:05:00.039Z,8.70
2019-04-03T16:07:31.688Z,8.60
2019-04-03T16:09:59.592Z,8.50
2019-04-03T16:12:28.127Z,8.60
2019-04-03T16:14:57.476Z,8.80
2019-04-03T16:17:26.113Z,8.80
2019-04-03T16:19:55.214Z,8.80
2019-04-03T16:22:23.862Z,8.60
2019-04-03T16:24:53.816Z,8.50
2019-04-03T16:27:23.072Z,8.50
2019-04-03T16:29:51.659Z,8.40
2019-04-03T16:32:21.024Z,8.20
2019-04-03T16:34:49.661Z,8.20
2019-04-03T16:37:20.510Z,8.20
2019-04-03T16:39:48.395Z,8.10
2019-04-03T16:42:17.158Z,7.70
2019-04-03T16:44:45.853Z,7.30
2019-04-03T16:47:14.514Z,7.20
2019-04-03T16:49:44.822Z,7.20
2019-04-03T16:52:13.275Z,7.10
2019-04-03T16:54:44.398Z,6.90
2019-04-03T16:57:14.976Z,6.80
2019-04-03T16:59:43.821Z,6.80
2019-04-03T17:02:12.488Z,6.80
2019-04-03T17:04:40.928Z,6.80
2019-04-03T17:07:09.794Z,6.80
2019-04-03T17:09:39.423Z,6.80
2019-04-03T17:12:07.968Z,6.60
2019-04-03T17:14:36.475Z,6.70
2019-04-03T17:17:05.040Z,6.80
2019-04-03T17:19:33.476Z,6.90
2019-04-03T17:22:01.978Z,6.80
2019-04-03T17:24:41.040Z,6.70
2019-04-03T17:27:00.667Z,6.60
2019-04-03T17:29:29.220Z,6.60
2019-04-03T17:31:58.848Z,6.50
2019-04-03T17:34:28.120Z,6.60
2019-04-03T17:36:56.775Z,6.60
2019-04-03T17:39:25.275Z,6.50
2019-04-03T17:41:56.529Z,6.60
2019-04-03T17:44:24.963Z,6.60
2019-04-03T17:46:53.441Z,6.50
2019-04-03T17:49:24.397Z,6.50
2019-04-03T17:51:52.261Z,6.50
2019-04-03T17:54:20.724Z,6.40
2019-04-03T17:56:49.234Z,6.40
2019-04-03T17:59:19.213Z,6.40
2019-04-03T18:01:47.695Z,6.40
2019-04-03T18:04:16.144Z,6.40
2019-04-03T18:06:46.605Z,6.50
2019-04-03T18:09:14.778Z,6.60
2019-04-03T18:11:43.216Z,6.50
2019-04-03T18:14:11.668Z,6.50
2019-04-03T18:16:40.211Z,6.30
2019-04-03T18:19:08.658Z,6.00
2019-04-03T18:21:37.104Z,5.80
2019-04-03T18:24:05.556Z,5.60
2019-04-03T18:26:34.072Z,5.50
2019-04-03T18:29:02.509Z,5.40
2019-04-03T18:31:31.052Z,5.50
2019-04-03T18:33:59.641Z,5.40
2019-04-03T18:36:31.110Z,5.30
2019-04-03T18:38:58.332Z,5.20
2019-04-03T18:41:27.155Z,5.20
2019-04-03T18:43:55.674Z,5.20
2019-04-03T18:46:32.191Z,5.20
2019-04-03T18:49:00.516Z,5.20
2019-04-03T18:51:24.464Z,5.10
2019-04-03T18:53:52.989Z,5.10
2019-04-03T18:56:21.514Z,5.10
2019-04-03T18:58:49.968Z,5.10
2019-04-03T19:01:18.617Z,5.20
2019-04-03T19:03:47.156Z,5.20
2019-04-03T19:06:15.592Z,5.10
2019-04-03T19:08:44.117Z,5.20
2019-04-03T19:11:12.635Z,5.10
2019-04-03T19:13:41.080Z,5.20
2019-04-03T19:16:09.544Z,5.20
2019-04-03T19:18:38.091Z,5.30
2019-04-03T19:21:06.607Z,5.30
2019-04-03T19:23:35.182Z,5.30
2019-04-03T19:26:03.617Z,5.30
2019-04-03T19:28:34.316Z,5.30
2019-04-03T19:31:02.251Z,5.20
2019-04-03T19:33:30.700Z,5.20
2019-04-03T19:35:59.347Z,5.10
2019-04-03T19:38:27.917Z,5.00
2019-04-03T19:40:56.462Z,5.00
2019-04-03T19:43:24.977Z,5.00
2019-04-03T19:45:53.453Z,5.00
2019-04-03T19:48:21.960Z,5.00
2019-04-03T19:50:51.420Z,4.90
2019-04-03T19:53:19.907Z,4.90
2019-04-03T19:55:48.432Z,4.90
2019-04-03T19:58:16.943Z,4.90
2019-04-03T20:00:45.412Z,4.80
2019-04-03T20:03:17.004Z,4.80
2019-04-03T20:05:45.521Z,4.80
2019-04-03T20:08:14.088Z,4.80
2019-04-03T20:10:42.544Z,4.80
2019-04-03T20:13:11.052Z,4.80
2019-04-03T20:15:39.670Z,4.70
2019-04-03T20:18:08.194Z,4.70
2019-04-03T20:20:36.632Z,4.70
2019-04-03T20:23:05.256Z,4.90
2019-04-03T20:25:33.764Z,4.90
2019-04-03T20:28:02.321Z,4.90
2019-04-03T20:30:32.705Z,4.90
2019-04-03T20:33:01.110Z,4.90
2019-04-03T20:35:29.548Z,4.80
2019-04-03T20:37:58.111Z,4.80
2019-04-03T20:40:26.557Z,4.70
2019-04-03T20:42:55.097Z,4.60
2019-04-03T20:45:23.680Z,4.60
2019-04-03T20:47:52.163Z,4.40
2019-04-03T20:50:20.745Z,4.30
2019-04-03T20:52:49.224Z,4.20
2019-04-03T20:55:17.744Z,4.00
2019-04-03T20:57:55.404Z,4.10
2019-04-03T21:00:18.576Z,4.00
2019-04-03T21:02:47.584Z,3.90
2019-04-03T21:05:18.175Z,3.90
2019-04-03T21:07:46.380Z,4.00
2019-04-03T21:10:15.117Z,3.90
2019-04-03T21:12:43.639Z,3.90
2019-04-03T21:15:14.264Z,3.80
2019-04-03T21:17:42.430Z,3.80
2019-04-03T21:20:11.311Z,3.70
2019-04-03T21:22:39.951Z,3.60
2019-04-03T21:25:09.317Z,3.50
2019-04-03T21:27:39.805Z,3.60
2019-04-03T21:30:09.486Z,3.60
2019-04-03T21:32:37.995Z,3.50
2019-04-03T21:35:06.766Z,3.50
2019-04-03T21:37:35.242Z,3.40
2019-04-03T21:40:05.051Z,3.40
2019-04-03T21:42:33.731Z,3.50
2019-04-03T21:45:02.804Z,3.40
2019-04-03T21:47:32.379Z,3.40
2019-04-03T21:50:03.439Z,3.40
2019-04-03T21:52:31.287Z,3.40
2019-04-03T21:54:59.723Z,3.30
2019-04-03T21:57:28.164Z,3.20
2019-04-03T21:59:56.644Z,3.30
2019-04-03T22:02:25.140Z,3.40
2019-04-03T22:04:53.954Z,3.50
2019-04-03T22:07:23.115Z,3.50
2019-04-03T22:09:51.562Z,3.50
2019-04-03T22:12:20.009Z,3.30
2019-04-03T22:14:48.480Z,3.20
2019-04-03T22:17:16.943Z,3.00
2019-04-03T22:19:45.499Z,3.00
2019-04-03T22:22:13.948Z,3.00
2019-04-03T22:24:42.392Z,2.90
2019-04-03T22:27:11.514Z,3.00
2019-04-03T22:29:40.581Z,2.90
2019-04-03T22:32:09.027Z,3.00
2019-04-03T22:34:37.473Z,3.00
2019-04-03T22:37:05.945Z,3.00
2019-04-03T22:39:34.391Z,3.10
2019-04-03T22:42:02.824Z,3.00
2019-04-03T22:44:31.303Z,2.90
2019-04-03T22:46:59.755Z,2.90
2019-04-03T22:49:28.203Z,3.00
2019-04-03T22:51:56.750Z,3.00
2019-04-03T22:54:25.189Z,3.10
2019-04-03T22:56:53.642Z,3.10
2019-04-03T22:59:24.333Z,3.10
2019-04-03T23:01:52.287Z,3.10
2019-04-03T23:04:20.731Z,3.10
2019-04-03T23:06:49.704Z,3.00
2019-04-03T23:09:24.737Z,3.00
2019-04-03T23:11:51.725Z,2.90
2019-04-03T23:14:20.269Z,2.80
2019-04-03T23:16:48.703Z,2.70
2019-04-03T23:19:17.958Z,2.70
2019-04-03T23:21:47.092Z,2.60
2019-04-03T23:24:15.555Z,2.60
2019-04-03T23:26:43.995Z,2.50
2019-04-03T23:29:12.539Z,2.40
2019-04-03T23:31:40.987Z,2.30
2019-04-03T23:34:09.427Z,2.30
2019-04-03T23:36:37.966Z,2.30
2019-04-03T23:39:08.161Z,2.30
2019-04-03T23:41:37.010Z,2.30
2019-04-03T23:44:05.551Z,2.30
2019-04-03T23:46:33.995Z,2.20
2019-04-03T23:49:02.535Z,2.20
2019-04-03T23:51:31.070Z,2.10
2019-04-03T23:54:02.598Z,2.10
2019-04-03T23:56:29.754Z,2.10
2019-04-03T23:58:58.225Z,2.20
